KSNL/SNL METAR and TAF weather

Enter ICAO airport designator
Station Type Date Time Source
KSNL METAR 2019/10/15 18:35 UTC NOAA

KSNL 151835Z AUTO 03003KT 10SM SCT028 SCT040 27/19 A2986 RMK AO2 T02670191


Station Type Date Time Source
KSNL Decoded METAR 2019/10/15 18:35 UTC NOAA

Shawnee, Shawnee Municipal Airport, OK, United States (KSNL) 35-21-26N 096-56-34W
Oct 15, 2019 - 02:35 PM EDT / 2019.10.15 1835 UTC
Wind: from the NNE (030 degrees) at 3 MPH (3 KT):0
Visibility: 10 mile(s):0
Sky conditions: partly cloudy
Temperature: 80.1 F (26.7 C)
Dew Point: 66.4 F (19.1 C)
Relative Humidity: 63%
Pressure (altimeter): 29.86 in. Hg (1011 hPa)
ob: KSNL 151835Z AUTO 03003KT 10SM SCT028 SCT040 27/19 A2986 RMK AO2 T02670191
cycle: 18

Station Type Date Time Source
KSNL TAF UTC NOAA

Error!

Example: see airport list